Time;durP1;ratioP1;P1;durP2;ratioP2;P2;SDS_P1;SDS_P2;PMS_P1;PMS_P2;Temp;Humidity;BMP_temperature;BMP_pressure;BME280_temperature;BME280_humidity;BME280_pressure;Samples;Min_cycle;Max_cycle;Signal;HPM_P1;HPM_P2
2023/11/10 00:02:21;;;;;;;6.38;1.48;;;10.40;70.60;;;;;;5040625;28;20044;-75
2023/11/10 00:04:49;;;;;;;8.82;2.05;;;10.30;70.40;;;;;;5041146;28;20041;-74
2023/11/10 00:07:19;;;;;;;6.55;2.13;;;10.40;70.60;;;;;;5041932;28;20234;-74
2023/11/10 00:09:45;;;;;;;14.57;3.22;;;10.30;70.40;;;;;;5058812;28;20139;-74
2023/11/10 00:12:14;;;;;;;6.07;1.58;;;10.30;70.50;;;;;;5059286;28;20508;-74
2023/11/10 00:14:42;;;;;;;5.82;1.42;;;10.30;70.50;;;;;;5059567;28;20520;-74
2023/11/10 00:17:09;;;;;;;6.63;1.75;;;10.30;70.50;;;;;;5056693;28;20059;-74
2023/11/10 00:19:37;;;;;;;5.68;1.65;;;10.30;70.50;;;;;;5058693;28;20457;-74
2023/11/10 00:22:06;;;;;;;5.32;1.40;;;10.30;70.50;;;;;;5089883;28;20283;-73
2023/11/10 00:24:39;;;;;;;5.53;1.88;;;10.30;70.50;;;;;;5059216;28;20025;-74
2023/11/10 00:27:07;;;;;;;6.80;2.00;;;10.30;70.50;;;;;;5056791;28;20039;-75
2023/11/10 00:29:33;;;;;;;4.97;2.00;;;10.30;70.50;;;;;;5041091;28;20021;-74
2023/11/10 00:31:59;;;;;;;6.95;1.75;;;10.30;70.60;;;;;;5060902;28;20056;-73
2023/11/10 00:34:25;;;;;;;4.95;1.38;;;10.30;70.60;;;;;;5061307;28;20068;-73
2023/11/10 00:36:51;;;;;;;6.57;1.25;;;10.30;71.10;;;;;;5062661;28;20052;-73
2023/11/10 00:39:20;;;;;;;6.93;1.98;;;10.30;70.60;;;;;;5061721;28;20040;-73
2023/11/10 00:41:48;;;;;;;7.93;2.08;;;10.30;70.70;;;;;;5056192;28;20168;-73
2023/11/10 00:44:14;;;;;;;6.03;1.83;;;10.30;70.70;;;;;;5059165;28;20028;-75
2023/11/10 00:46:40;;;;;;;6.57;2.00;;;10.30;70.70;;;;;;5061403;28;20038;-75
2023/11/10 00:49:06;;;;;;;8.02;2.13;;;10.20;70.60;;;;;;5044858;28;20414;-75
2023/11/10 00:51:32;;;;;;;4.95;1.77;;;10.20;70.60;;;;;;5059377;28;20032;-75
2023/11/10 00:54:00;;;;;;;5.63;1.75;;;10.20;70.60;;;;;;5063014;28;20508;-74
2023/11/10 00:56:26;;;;;;;2.95;1.40;;;10.20;70.60;;;;;;5059528;28;20127;-75
2023/11/10 00:58:53;;;;;;;8.43;2.03;;;10.20;70.70;;;;;;5059275;28;20036;-75
2023/11/10 01:01:19;;;;;;;7.13;2.00;;;10.30;70.80;;;;;;5058721;28;20316;-74
2023/11/10 01:03:45;;;;;;;7.00;1.58;;;10.30;70.80;;;;;;5042753;28;20290;-75
2023/11/10 01:06:11;;;;;;;5.20;2.17;;;10.30;70.80;;;;;;5061038;28;20036;-75
2023/11/10 01:08:37;;;;;;;4.30;1.65;;;10.20;70.70;;;;;;5061397;28;20029;-74
2023/11/10 01:11:03;;;;;;;9.05;1.88;;;10.30;70.80;;;;;;5060287;28;20507;-74
2023/11/10 01:13:30;;;;;;;6.65;1.70;;;10.20;70.70;;;;;;5042438;28;20028;-74
2023/11/10 01:15:56;;;;;;;6.90;2.00;;;10.30;70.90;;;;;;5042653;28;20651;-74
2023/11/10 01:18:23;;;;;;;8.20;1.70;;;10.20;70.70;;;;;;5058994;28;20036;-74
2023/11/10 01:20:49;;;;;;;4.85;1.70;;;10.20;70.70;;;;;;5058865;28;20033;-74
2023/11/10 01:23:15;;;;;;;6.13;1.33;;;10.20;70.80;;;;;;5060665;28;20755;-74
2023/11/10 01:25:41;;;;;;;5.35;1.73;;;10.20;70.80;;;;;;5041884;28;20088;-74
2023/11/10 01:28:07;;;;;;;9.55;1.95;;;10.20;70.80;;;;;;5040038;28;20511;-74
2023/11/10 01:30:34;;;;;;;5.10;1.67;;;10.10;70.70;;;;;;5056492;28;20041;-75
2023/11/10 01:33:00;;;;;;;6.80;2.08;;;10.10;70.70;;;;;;5059662;28;20035;-74
2023/11/10 01:35:26;;;;;;;8.85;1.70;;;10.10;70.70;;;;;;5057748;28;20223;-74
2023/11/10 01:37:52;;;;;;;4.85;1.42;;;10.10;70.70;;;;;;5056894;28;20024;-74
2023/11/10 01:40:19;;;;;;;6.13;1.75;;;10.10;70.80;;;;;;5059851;28;20045;-74
2023/11/10 01:42:45;;;;;;;6.38;2.53;;;10.10;70.80;;;;;;5052967;28;20423;-74
2023/11/10 01:45:11;;;;;;;6.07;1.63;;;10.10;70.80;;;;;;5058503;28;20526;-74
2023/11/10 01:47:39;;;;;;;6.32;1.75;;;10.10;70.80;;;;;;5061533;28;20028;-74
2023/11/10 01:50:06;;;;;;;5.75;1.63;;;10.10;70.90;;;;;;5059040;28;20037;-73
2023/11/10 01:52:33;;;;;;;7.88;1.77;;;10.00;70.70;;;;;;5058419;28;20036;-74
2023/11/10 01:55:00;;;;;;;7.10;1.92;;;10.10;70.90;;;;;;5042907;28;20040;-74
2023/11/10 01:57:26;;;;;;;4.65;1.13;;;10.00;70.70;;;;;;5057608;28;20024;-75
2023/11/10 01:59:58;;;;;;;4.60;1.55;;;10.00;70.70;;;;;;5077222;28;20024;-73
2023/11/10 02:02:24;;;;;;;5.05;1.40;;;10.00;70.70;;;;;;5061499;28;20302;-73
2023/11/10 02:04:51;;;;;;;7.63;1.52;;;10.00;70.70;;;;;;5042417;28;20033;-72
2023/11/10 02:07:17;;;;;;;7.10;1.80;;;10.00;70.80;;;;;;5058529;28;20629;-73
2023/11/10 02:09:43;;;;;;;9.95;2.42;;;10.00;70.80;;;;;;5056152;28;20822;-73
2023/11/10 02:12:09;;;;;;;3.60;1.20;;;10.00;70.80;;;;;;5057087;28;20035;-71
2023/11/10 02:14:35;;;;;;;6.78;1.42;;;10.00;70.90;;;;;;5057251;28;20036;-74
2023/11/10 02:17:01;;;;;;;3.95;1.20;;;10.00;71.00;;;;;;5041015;28;20036;-74
2023/11/10 02:19:28;;;;;;;8.25;1.85;;;10.00;71.00;;;;;;5056593;28;20124;-75
2023/11/10 02:21:54;;;;;;;3.22;1.52;;;9.90;70.80;;;;;;5056931;28;20116;-74
2023/11/10 02:24:23;;;;;;;7.07;2.05;;;9.90;70.90;;;;;;5057779;28;20043;-74
2023/11/10 02:26:49;;;;;;;4.53;1.48;;;9.90;70.90;;;;;;5055464;28;20036;-75
2023/11/10 02:29:15;;;;;;;5.40;1.40;;;9.90;70.90;;;;;;5058206;28;20063;-75
2023/11/10 02:31:42;;;;;;;7.75;1.77;;;9.90;70.90;;;;;;5055308;28;20037;-75
2023/11/10 02:34:10;;;;;;;4.60;1.52;;;9.90;70.90;;;;;;5059028;28;20044;-75
2023/11/10 02:36:37;;;;;;;4.10;1.40;;;10.00;71.20;;;;;;5058126;28;20090;-75
2023/11/10 02:39:05;;;;;;;5.65;1.70;;;9.90;71.00;;;;;;5057957;28;20893;-74
2023/11/10 02:41:31;;;;;;;3.50;1.33;;;9.90;71.00;;;;;;5053269;28;20041;-73
2023/11/10 02:43:57;;;;;;;4.57;1.25;;;10.00;71.20;;;;;;5056711;28;20029;-74
2023/11/10 02:46:23;;;;;;;6.05;1.50;;;10.00;71.30;;;;;;5059101;28;20093;-75
2023/11/10 02:48:51;;;;;;;6.22;1.30;;;10.00;71.30;;;;;;5060041;28;20028;-74
2023/11/10 02:51:17;;;;;;;7.35;2.05;;;10.00;71.30;;;;;;5058772;28;20035;-75
2023/11/10 02:53:43;;;;;;;5.20;1.20;;;10.00;71.30;;;;;;5059144;28;20475;-74
2023/11/10 02:56:09;;;;;;;4.35;1.48;;;10.00;71.30;;;;;;5056653;28;20120;-75
2023/11/10 02:58:35;;;;;;;3.40;1.13;;;10.00;71.40;;;;;;5056506;28;20032;-75
2023/11/10 03:01:01;;;;;;;3.47;1.10;;;10.00;71.40;;;;;;5092227;28;20029;-75
2023/11/10 03:03:27;;;;;;;5.20;0.90;;;10.00;71.40;;;;;;5059630;28;20048;-75
2023/11/10 03:05:54;;;;;;;5.65;1.38;;;10.00;71.40;;;;;;5059744;28;20762;-76
2023/11/10 03:08:19;;;;;;;5.88;1.35;;;10.00;71.50;;;;;;5058213;28;20132;-74
2023/11/10 03:10:46;;;;;;;5.50;1.60;;;10.00;71.50;;;;;;5057372;28;20507;-73
2023/11/10 03:13:12;;;;;;;6.80;1.70;;;10.00;71.50;;;;;;5038636;28;20027;-74
2023/11/10 03:15:39;;;;;;;5.53;1.73;;;10.00;71.50;;;;;;5058747;28;20033;-74
2023/11/10 03:18:05;;;;;;;4.20;1.40;;;10.10;71.70;;;;;;5058795;28;20094;-73
2023/11/10 03:20:31;;;;;;;4.85;1.30;;;10.00;71.60;;;;;;5061454;28;20187;-73
2023/11/10 03:22:57;;;;;;;4.25;1.70;;;10.10;71.80;;;;;;5058889;28;20391;-73
2023/11/10 03:25:24;;;;;;;5.45;1.00;;;10.00;71.60;;;;;;5060128;28;20129;-73
2023/11/10 03:27:50;;;;;;;7.35;1.55;;;10.10;71.80;;;;;;5055258;28;20361;-74
2023/11/10 03:30:16;;;;;;;6.68;1.27;;;10.10;71.80;;;;;;5058781;28;20031;-73
2023/11/10 03:32:42;;;;;;;6.55;1.92;;;10.10;71.90;;;;;;5060099;28;20102;-73
2023/11/10 03:35:09;;;;;;;7.65;1.50;;;10.10;71.90;;;;;;5059327;28;20923;-74
2023/11/10 03:37:35;;;;;;;6.88;1.70;;;10.10;71.90;;;;;;5060780;28;20028;-73
2023/11/10 03:40:03;;;;;;;5.13;1.40;;;10.10;71.90;;;;;;5057563;28;20064;-73
2023/11/10 03:42:30;;;;;;;9.25;1.92;;;10.10;71.90;;;;;;5053287;28;20028;-73
2023/11/10 03:44:56;;;;;;;6.15;1.38;;;10.10;71.90;;;;;;5059302;28;20036;-73
2023/11/10 03:47:22;;;;;;;5.15;1.40;;;10.10;72.00;;;;;;5058748;28;20036;-74
2023/11/10 03:49:48;;;;;;;8.15;2.08;;;10.10;72.00;;;;;;5093056;28;20017;-73
2023/11/10 03:52:14;;;;;;;5.63;1.65;;;10.10;72.00;;;;;;5059216;28;20048;-74
2023/11/10 03:54:40;;;;;;;6.72;1.55;;;10.10;72.00;;;;;;5059082;28;20157;-73
2023/11/10 03:57:05;;;;;;;4.88;1.42;;;10.10;72.00;;;;;;5059959;28;20240;-73
2023/11/10 03:59:31;;;;;;;8.52;1.55;;;10.10;72.00;;;;;;5058534;28;20793;-74
2023/11/10 04:01:58;;;;;;;8.13;1.67;;;10.10;72.00;;;;;;5061782;28;20101;-74
2023/11/10 04:04:23;;;;;;;6.20;1.80;;;10.10;72.00;;;;;;5062409;28;20036;-75
2023/11/10 04:06:50;;;;;;;3.97;1.55;;;10.10;72.10;;;;;;5062535;28;20025;-74
2023/11/10 04:09:17;;;;;;;7.03;1.70;;;10.10;72.10;;;;;;5062355;28;20056;-74
2023/11/10 04:11:43;;;;;;;4.90;1.63;;;10.10;72.20;;;;;;5062440;28;20037;-74
2023/11/10 04:14:11;;;;;;;5.07;1.45;;;10.10;72.20;;;;;;5060992;28;20560;-74
2023/11/10 04:16:37;;;;;;;5.63;1.30;;;10.10;72.20;;;;;;5062167;28;20056;-74
2023/11/10 04:19:04;;;;;;;6.55;1.95;;;10.10;72.30;;;;;;5061250;28;20069;-74
2023/11/10 04:21:30;;;;;;;12.77;1.63;;;10.10;72.30;;;;;;5062430;28;20558;-73
2023/11/10 04:23:57;;;;;;;5.35;1.35;;;10.10;72.30;;;;;;5063736;28;20078;-74
2023/11/10 04:26:23;;;;;;;9.35;3.13;;;10.10;72.30;;;;;;5052943;28;20131;-74
2023/11/10 04:28:50;;;;;;;8.10;1.85;;;10.10;72.30;;;;;;5069277;28;20029;-74
2023/11/10 04:31:17;;;;;;;9.95;1.70;;;10.20;72.50;;;;;;5059609;28;20535;-74
2023/11/10 04:33:43;;;;;;;6.53;1.70;;;10.10;72.30;;;;;;5060209;28;20028;-74
2023/11/10 04:36:12;;;;;;;7.55;1.85;;;10.20;72.50;;;;;;5062545;28;20040;-74
2023/11/10 04:38:43;;;;;;;8.63;1.92;;;10.20;72.50;;;;;;5063105;28;20028;-74
2023/11/10 04:41:10;;;;;;;9.52;2.35;;;10.20;72.50;;;;;;5057719;28;20557;-74
2023/11/10 04:43:36;;;;;;;6.35;1.75;;;10.20;72.50;;;;;;5058660;28;20079;-73
2023/11/10 04:46:05;;;;;;;6.93;1.85;;;10.20;72.50;;;;;;5061350;28;20054;-73
2023/11/10 04:48:31;;;;;;;6.65;2.10;;;10.20;72.50;;;;;;5061145;28;20029;-73
2023/11/10 04:51:02;;;;;;;6.38;1.70;;;10.20;72.50;;;;;;5063107;28;20029;-73
2023/11/10 04:53:28;;;;;;;8.38;2.35;;;10.20;72.50;;;;;;5062468;28;20029;-73
2023/11/10 04:55:55;;;;;;;9.73;2.25;;;10.20;72.60;;;;;;5060514;28;20456;-73
2023/11/10 04:58:20;;;;;;;8.25;1.90;;;10.10;72.40;;;;;;5062338;28;20116;-76
2023/11/10 05:00:46;;;;;;;6.55;1.52;;;10.10;72.90;;;;;;5060608;28;20040;-75
2023/11/10 05:03:15;;;;;;;5.93;1.52;;;10.20;72.60;;;;;;5060305;28;20096;-76
2023/11/10 05:05:41;;;;;;;5.25;1.15;;;10.10;72.50;;;;;;5063544;28;20032;-74
2023/11/10 05:08:07;;;;;;;3.90;1.02;;;10.10;72.50;;;;;;5062649;28;20036;-75
2023/11/10 05:10:32;;;;;;;5.75;2.10;;;10.20;72.60;;;;;;5060759;28;20218;-74
2023/11/10 05:12:58;;;;;;;6.05;1.45;;;10.10;72.50;;;;;;5042034;28;20392;-76
2023/11/10 05:15:24;;;;;;;6.97;2.22;;;10.10;72.50;;;;;;5062796;28;20013;-75
2023/11/10 05:17:50;;;;;;;5.15;1.85;;;10.10;72.50;;;;;;5062013;28;20466;-75
2023/11/10 05:20:17;;;;;;;4.78;1.30;;;10.10;72.60;;;;;;5059643;28;20063;-75
2023/11/10 05:22:46;;;;;;;3.72;1.52;;;10.10;72.50;;;;;;5056796;28;20056;-74
2023/11/10 05:25:12;;;;;;;7.22;1.38;;;10.10;72.50;;;;;;5063005;28;20025;-74
2023/11/10 05:27:39;;;;;;;5.25;1.77;;;10.10;72.60;;;;;;5067482;28;20017;-75
2023/11/10 05:30:07;;;;;;;5.25;1.50;;;10.20;72.80;;;;;;5058354;28;20036;-75
2023/11/10 05:32:33;;;;;;;4.82;1.60;;;10.10;72.60;;;;;;5064340;28;20256;-75
2023/11/10 05:34:59;;;;;;;7.22;1.63;;;10.10;72.50;;;;;;5066368;28;20028;-75
2023/11/10 05:37:26;;;;;;;9.93;1.90;;;10.10;72.50;;;;;;5068348;28;20096;-74
2023/11/10 05:39:52;;;;;;;5.68;1.73;;;10.10;72.60;;;;;;5062836;28;20129;-74
2023/11/10 05:42:22;;;;;;;6.22;1.33;;;10.10;72.60;;;;;;5053406;28;20036;-75
2023/11/10 05:44:51;;;;;;;8.27;1.70;;;10.10;72.60;;;;;;5060617;28;20032;-74
2023/11/10 05:47:17;;;;;;;6.72;1.50;;;10.20;72.80;;;;;;5057790;28;20605;-75
2023/11/10 05:49:43;;;;;;;9.15;1.63;;;10.10;72.60;;;;;;5060529;28;20071;-74
2023/11/10 05:52:10;;;;;;;5.95;1.35;;;10.20;72.80;;;;;;5057638;28;20476;-74
2023/11/10 05:54:36;;;;;;;6.43;1.58;;;10.20;72.80;;;;;;5060388;28;20491;-75
2023/11/10 05:57:02;;;;;;;8.38;1.63;;;10.10;72.60;;;;;;5060312;28;20040;-73
2023/11/10 05:59:28;;;;;;;7.15;1.75;;;10.20;72.80;;;;;;5055902;28;20527;-74
2023/11/10 06:01:57;;;;;;;5.47;1.98;;;10.20;72.80;;;;;;5058901;28;20111;-75
2023/11/10 06:04:23;;;;;;;8.23;1.60;;;10.10;72.60;;;;;;5058612;28;20404;-74
2023/11/10 06:06:50;;;;;;;6.50;1.85;;;10.10;72.60;;;;;;5058659;28;20026;-73
2023/11/10 06:09:22;;;;;;;9.15;3.10;;;10.20;72.80;;;;;;5059381;28;20029;-74
2023/11/10 06:11:52;;;;;;;6.68;1.65;;;10.20;72.80;;;;;;5056659;28;20389;-74
2023/11/10 06:14:18;;;;;;;6.80;1.65;;;10.10;72.60;;;;;;5062703;28;20023;-74
2023/11/10 06:16:44;;;;;;;7.38;2.50;;;10.10;72.60;;;;;;5064356;28;20409;-73
2023/11/10 06:19:11;;;;;;;6.72;2.00;;;10.10;72.60;;;;;;5064981;28;20500;-74
2023/11/10 06:21:36;;;;;;;8.05;1.83;;;10.10;72.60;;;;;;5066822;28;20536;-72
2023/11/10 06:24:03;;;;;;;6.18;1.75;;;10.20;72.80;;;;;;5067591;28;20059;-72
2023/11/10 06:26:30;;;;;;;7.30;1.80;;;10.20;72.80;;;;;;5068727;28;20122;-75
2023/11/10 06:28:58;;;;;;;7.72;2.13;;;10.10;72.60;;;;;;5057486;28;20328;-72
2023/11/10 06:31:24;;;;;;;8.90;2.47;;;10.20;72.80;;;;;;5056599;28;20040;-75
2023/11/10 06:33:51;;;;;;;9.73;2.15;;;10.20;72.80;;;;;;5062992;28;20020;-75
2023/11/10 06:36:20;;;;;;;6.05;1.90;;;10.20;72.80;;;;;;5058473;28;20047;-76
2023/11/10 06:38:46;;;;;;;6.60;2.05;;;10.20;72.80;;;;;;5061920;28;20088;-74
2023/11/10 06:41:14;;;;;;;8.95;2.05;;;10.20;72.80;;;;;;5036299;28;20048;-75
2023/11/10 06:43:42;;;;;;;11.73;2.53;;;10.20;72.90;;;;;;5054177;28;20706;-81
2023/11/10 06:46:09;;;;;;;9.27;2.38;;;10.20;72.90;;;;;;5049711;28;20438;-82
2023/11/10 06:48:35;;;;;;;7.38;2.42;;;10.10;72.70;;;;;;5051646;28;20041;-81
2023/11/10 06:51:02;;;;;;;6.88;2.17;;;10.10;72.70;;;;;;5054194;28;20024;-82
2023/11/10 06:53:29;;;;;;;8.80;1.98;;;10.10;72.70;;;;;;5053918;28;20870;-75
2023/11/10 06:55:56;;;;;;;8.90;2.20;;;10.10;72.80;;;;;;5051538;28;20573;-82
2023/11/10 06:58:22;;;;;;;8.40;1.80;;;10.10;72.90;;;;;;5056465;28;20036;-75
2023/11/10 07:00:49;;;;;;;12.88;1.98;;;10.20;73.30;;;;;;5052777;28;20044;-80
2023/11/10 07:03:18;;;;;;;10.80;2.35;;;10.20;73.30;;;;;;5056226;28;20545;-81
2023/11/10 07:05:44;;;;;;;7.88;2.13;;;10.20;73.40;;;;;;5038975;28;20028;-84
2023/11/10 07:08:11;;;;;;;5.15;1.52;;;10.30;73.60;;;;;;5039261;28;20496;-84
2023/11/10 07:10:41;;;;;;;11.63;1.63;;;10.30;73.70;;;;;;5038267;28;20346;-78
2023/11/10 07:13:07;;;;;;;7.72;1.83;;;10.30;73.70;;;;;;5055755;28;20036;-78
2023/11/10 07:15:33;;;;;;;8.93;2.20;;;10.30;73.70;;;;;;5055138;28;20118;-79
2023/11/10 07:18:00;;;;;;;8.98;2.03;;;10.30;73.70;;;;;;5056819;28;20032;-79
2023/11/10 07:20:28;;;;;;;7.57;1.85;;;10.30;73.80;;;;;;5056539;28;20075;-79
2023/11/10 07:22:54;;;;;;;6.95;1.67;;;10.30;73.70;;;;;;5061124;28;20038;-79
2023/11/10 07:25:20;;;;;;;7.13;1.52;;;10.30;73.70;;;;;;5054345;28;20033;-78
2023/11/10 07:27:46;;;;;;;9.13;1.88;;;10.40;73.90;;;;;;5052160;28;20037;-78
2023/11/10 07:30:12;;;;;;;7.13;1.65;;;10.30;74.30;;;;;;5054261;28;20086;-77
2023/11/10 07:32:38;;;;;;;6.43;1.83;;;10.30;73.80;;;;;;5054919;28;20040;-79
2023/11/10 07:35:05;;;;;;;6.25;1.63;;;10.30;73.80;;;;;;5056663;28;20033;-79
2023/11/10 07:37:35;;;;;;;5.93;1.70;;;10.30;73.80;;;;;;5058214;28;20551;-79
2023/11/10 07:40:08;;;;;;;6.28;1.58;;;10.30;73.80;;;;;;5058054;28;20126;-77
2023/11/10 07:42:36;;;;;;;5.47;1.52;;;10.30;73.80;;;;;;5069510;28;20365;-76
2023/11/10 07:45:02;;;;;;;7.25;1.60;;;10.30;73.80;;;;;;5043327;28;20131;-76
2023/11/10 07:47:29;;;;;;;5.95;1.35;;;10.30;73.80;;;;;;5057750;28;20094;-75
2023/11/10 07:49:55;;;;;;;4.85;1.50;;;10.20;73.70;;;;;;5061275;28;20664;-75
2023/11/10 07:52:22;;;;;;;3.60;1.15;;;10.20;73.70;;;;;;5056968;28;20101;-75
2023/11/10 07:54:49;;;;;;;4.82;1.20;;;10.30;73.90;;;;;;5063560;28;20062;-75
2023/11/10 07:57:15;;;;;;;6.90;1.50;;;10.20;73.70;;;;;;5056810;28;20032;-76
2023/11/10 07:59:41;;;;;;;2.58;1.23;;;10.20;73.70;;;;;;5064724;28;20051;-76
2023/11/10 08:02:11;;;;;;;4.68;1.70;;;10.20;73.80;;;;;;5056431;28;20384;-76
2023/11/10 08:04:38;;;;;;;3.78;1.08;;;10.20;73.70;;;;;;5047258;28;20391;-77
2023/11/10 08:07:05;;;;;;;2.45;0.82;;;10.20;73.70;;;;;;5062816;28;20040;-77
2023/11/10 08:09:33;;;;;;;2.53;0.98;;;10.20;73.70;;;;;;5062434;28;20119;-76
2023/11/10 08:11:59;;;;;;;2.28;0.85;;;10.20;73.70;;;;;;5054887;28;20535;-77
2023/11/10 08:14:25;;;;;;;3.85;1.00;;;10.20;73.70;;;;;;5058666;28;20032;-77
2023/11/10 08:16:52;;;;;;;2.63;0.80;;;10.30;73.80;;;;;;5064242;28;20056;-77
2023/11/10 08:19:18;;;;;;;2.35;0.85;;;10.30;73.80;;;;;;5062500;28;20040;-78
2023/11/10 08:21:44;;;;;;;2.38;0.80;;;10.30;73.80;;;;;;5059875;28;20133;-78
2023/11/10 08:24:11;;;;;;;4.60;1.23;;;10.30;73.70;;;;;;5066442;28;20040;-77
2023/11/10 08:26:38;;;;;;;2.25;0.60;;;10.30;73.70;;;;;;5064036;28;20351;-77
2023/11/10 08:29:04;;;;;;;2.28;0.90;;;10.30;73.70;;;;;;5061455;28;20558;-77
2023/11/10 08:31:30;;;;;;;3.83;1.10;;;10.30;73.70;;;;;;5062338;28;20125;-77
2023/11/10 08:33:57;;;;;;;4.22;0.82;;;10.30;73.70;;;;;;5059332;28;20977;-77
2023/11/10 08:36:22;;;;;;;1.60;0.95;;;10.30;73.60;;;;;;5067983;28;20028;-77
2023/11/10 08:38:51;;;;;;;3.40;1.05;;;10.30;73.70;;;;;;5059618;28;20051;-77
2023/11/10 08:41:18;;;;;;;2.83;1.08;;;10.30;73.60;;;;;;5055131;28;20075;-76
2023/11/10 08:43:45;;;;;;;1.85;0.70;;;10.30;73.60;;;;;;5060305;28;20506;-78
2023/11/10 08:46:11;;;;;;;3.10;1.45;;;10.40;73.80;;;;;;5057642;28;20036;-77
2023/11/10 08:48:38;;;;;;;2.05;1.00;;;10.40;73.80;;;;;;5072819;28;20028;-78
2023/11/10 08:51:05;;;;;;;3.08;1.00;;;10.40;73.80;;;;;;5055459;28;20482;-77
2023/11/10 08:53:32;;;;;;;1.67;0.70;;;10.40;73.70;;;;;;5064433;28;20038;-76
2023/11/10 08:55:58;;;;;;;2.83;0.80;;;10.40;73.70;;;;;;5059912;28;20025;-75
2023/11/10 08:58:26;;;;;;;3.17;0.88;;;10.40;73.60;;;;;;5061241;28;20591;-75
2023/11/10 09:00:52;;;;;;;2.33;1.08;;;10.50;73.70;;;;;;5064005;28;20091;-75
2023/11/10 09:03:19;;;;;;;3.85;1.05;;;10.60;73.90;;;;;;5066146;28;20483;-75
2023/11/10 09:05:46;;;;;;;1.08;0.60;;;10.60;73.80;;;;;;5058507;28;20028;-74
2023/11/10 09:08:12;;;;;;;2.78;0.80;;;10.60;73.70;;;;;;5045223;28;20033;-77
2023/11/10 09:10:38;;;;;;;0.98;0.73;;;10.70;73.80;;;;;;5061695;28;20043;-77
2023/11/10 09:13:04;;;;;;;3.33;0.93;;;10.70;73.80;;;;;;5060671;28;20036;-77
2023/11/10 09:15:31;;;;;;;3.28;0.80;;;10.70;73.70;;;;;;5059559;28;20054;-77
2023/11/10 09:17:57;;;;;;;1.13;0.68;;;10.70;73.70;;;;;;5059278;28;20028;-78
2023/11/10 09:20:24;;;;;;;2.75;0.68;;;10.70;73.70;;;;;;5060218;28;20036;-76
2023/11/10 09:22:50;;;;;;;1.25;0.70;;;10.80;73.90;;;;;;5058839;28;20043;-75
2023/11/10 09:25:20;;;;;;;2.97;0.75;;;10.90;74.00;;;;;;5061659;28;20036;-75
2023/11/10 09:27:46;;;;;;;1.40;0.70;;;11.00;73.90;;;;;;5054595;28;20032;-75
2023/11/10 09:30:14;;;;;;;1.88;0.60;;;11.10;73.90;;;;;;5058310;28;20036;-77
2023/11/10 09:32:41;;;;;;;1.55;0.50;;;11.10;73.80;;;;;;5062666;28;20119;-76
2023/11/10 09:35:07;;;;;;;1.95;0.65;;;11.20;73.80;;;;;;5058661;28;20558;-77
2023/11/10 09:37:34;;;;;;;1.83;0.63;;;11.20;73.70;;;;;;5044781;28;20499;-76
2023/11/10 09:40:00;;;;;;;1.13;0.60;;;11.20;73.60;;;;;;5059399;28;20168;-77
2023/11/10 09:42:27;;;;;;;3.15;0.73;;;11.30;73.70;;;;;;5054540;28;20559;-77
2023/11/10 09:44:56;;;;;;;2.40;0.80;;;11.20;73.50;;;;;;5061129;28;20058;-76
2023/11/10 09:47:26;;;;;;;1.40;0.57;;;11.30;73.70;;;;;;5058097;28;20044;-76
2023/11/10 09:49:53;;;;;;;3.08;0.60;;;11.20;73.50;;;;;;5061191;28;20042;-76
2023/11/10 09:52:21;;;;;;;2.22;0.60;;;11.30;73.70;;;;;;5060053;28;20024;-75
2023/11/10 09:54:51;;;;;;;1.30;0.40;;;11.20;73.50;;;;;;5063879;28;20391;-75
2023/11/10 09:57:17;;;;;;;1.00;0.38;;;11.20;73.50;;;;;;5056594;28;20400;-75
2023/11/10 09:59:44;;;;;;;2.60;0.70;;;11.20;73.40;;;;;;5065204;28;20090;-75
2023/11/10 10:02:13;;;;;;;1.92;0.70;;;11.30;74.10;;;;;;5058897;28;20044;-74
2023/11/10 10:04:43;;;;;;;1.30;0.43;;;11.30;73.60;;;;;;5062414;28;20036;-75
2023/11/10 10:07:11;;;;;;;1.02;0.60;;;11.40;73.60;;;;;;5058442;28;20035;-75
2023/11/10 10:09:41;;;;;;;1.67;0.40;;;11.40;73.40;;;;;;5059557;28;20484;-77
2023/11/10 10:12:08;;;;;;;0.70;0.22;;;11.40;73.30;;;;;;5057066;28;20036;-77
2023/11/10 10:14:35;;;;;;;1.13;0.60;;;11.40;73.20;;;;;;5059638;28;20024;-78
2023/11/10 10:17:00;;;;;;;1.70;0.43;;;11.40;73.20;;;;;;5058144;28;20492;-78
2023/11/10 10:19:28;;;;;;;2.13;0.80;;;11.40;73.40;;;;;;5055542;28;20608;-76
2023/11/10 10:21:54;;;;;;;1.27;0.60;;;11.40;73.50;;;;;;5054772;28;20044;-75
2023/11/10 10:24:21;;;;;;;1.58;0.60;;;11.50;73.80;;;;;;5060030;28;20044;-75
2023/11/10 10:26:48;;;;;;;0.30;0.28;;;11.60;74.10;;;;;;5061004;28;20434;-75
2023/11/10 10:29:18;;;;;;;3.15;0.60;;;11.60;74.10;;;;;;5061043;28;20032;-75
2023/11/10 10:31:48;;;;;;;0.55;0.32;;;11.70;74.20;;;;;;5061516;28;20028;-75
2023/11/10 10:34:17;;;;;;;1.45;0.40;;;11.70;74.20;;;;;;5056138;28;20445;-75
2023/11/10 10:36:44;;;;;;;1.00;0.40;;;11.80;74.40;;;;;;5061277;28;20036;-77
2023/11/10 10:39:15;;;;;;;1.23;0.40;;;11.90;74.40;;;;;;5055283;28;20132;-77
2023/11/10 10:41:43;;;;;;;1.45;0.40;;;11.90;74.40;;;;;;5045987;28;20543;-78
2023/11/10 10:44:09;;;;;;;1.25;0.38;;;12.00;74.50;;;;;;5048614;28;20152;-78
2023/11/10 10:46:37;;;;;;;1.02;0.52;;;12.00;74.40;;;;;;5055797;28;20036;-78
2023/11/10 10:49:06;;;;;;;1.10;0.40;;;12.10;74.60;;;;;;5059856;28;20056;-78
2023/11/10 10:51:37;;;;;;;3.05;0.60;;;12.20;74.70;;;;;;5053118;28;20036;-79
2023/11/10 10:54:06;;;;;;;0.77;0.40;;;12.20;74.60;;;;;;5038276;28;20384;-77
2023/11/10 10:56:37;;;;;;;0.75;0.35;;;12.20;74.50;;;;;;5060548;28;20089;-77
2023/11/10 10:59:04;;;;;;;1.10;0.20;;;12.30;74.50;;;;;;5062133;28;20045;-76
2023/11/10 11:01:31;;;;;;;1.38;0.52;;;12.40;74.60;;;;;;5062132;28;20048;-76
2023/11/10 11:04:07;;;;;;;1.02;0.50;;;12.40;74.50;;;;;;5062910;28;20036;-75
2023/11/10 11:06:49;;;;;;;1.05;0.40;;;12.40;74.50;;;;;;5067588;28;20043;-75
2023/11/10 11:09:53;;;;;;;0.63;0.50;;;12.50;74.50;;;;;;5036846;28;20120;-76
2023/11/10 11:12:48;;;;;;;1.55;1.13;;;12.50;74.40;;;;;;5019967;28;20251;-75
2023/11/10 11:15:29;;;;;;;1.65;0.30;;;12.60;74.50;;;;;;5055870;28;20136;-77
2023/11/10 11:18:26;;;;;;;1.67;0.80;;;12.70;74.60;;;;;;5062073;28;20050;-76
2023/11/10 11:20:53;;;;;;;1.10;0.40;;;12.70;74.50;;;;;;5051081;28;20875;-76
2023/11/10 11:23:23;;;;;;;0.32;0.30;;;12.70;74.40;;;;;;5059796;28;20304;-75
2023/11/10 11:25:59;;;;;;;1.20;0.52;;;12.80;74.50;;;;;;5055040;28;20159;-75
2023/11/10 11:28:31;;;;;;;1.30;0.30;;;12.80;74.40;;;;;;5055191;28;20052;-75
2023/11/10 11:31:08;;;;;;;1.58;0.40;;;12.80;74.30;;;;;;5053847;28;20563;-75
2023/11/10 11:33:44;;;;;;;0.30;0.22;;;13.00;74.60;;;;;;5054205;28;20040;-75
2023/11/10 11:36:13;;;;;;;1.98;0.38;;;13.00;74.50;;;;;;5054441;28;20129;-76
2023/11/10 11:38:41;;;;;;;1.63;0.45;;;13.00;74.40;;;;;;5057169;28;20136;-75
2023/11/10 11:41:07;;;;;;;2.83;0.55;;;13.00;74.30;;;;;;5054022;28;20052;-74
2023/11/10 11:43:33;;;;;;;1.02;0.50;;;13.10;74.40;;;;;;5055408;28;20127;-75
2023/11/10 11:46:00;;;;;;;1.02;0.20;;;13.10;74.30;;;;;;5059408;28;20046;-74
2023/11/10 11:48:32;;;;;;;0.60;0.35;;;13.20;74.40;;;;;;5065070;28;20087;-75
2023/11/10 11:50:59;;;;;;;1.00;0.50;;;13.20;74.30;;;;;;5057152;28;20135;-75
2023/11/10 11:53:25;;;;;;;1.15;0.40;;;13.20;74.20;;;;;;5055039;28;20071;-75
2023/11/10 11:55:55;;;;;;;2.47;0.70;;;13.30;74.20;;;;;;5058555;28;20045;-74
2023/11/10 11:58:22;;;;;;;0.70;0.30;;;13.30;74.10;;;;;;5064414;28;20088;-75
2023/11/10 12:00:50;;;;;;;2.63;0.30;;;13.40;74.10;;;;;;5083666;28;20037;-77
2023/11/10 12:03:16;;;;;;;2.92;0.40;;;13.40;74.00;;;;;;5060597;28;20110;-78
2023/11/10 12:05:43;;;;;;;0.22;0.20;;;13.50;74.10;;;;;;5058989;28;20077;-77
2023/11/10 12:08:11;;;;;;;2.75;0.55;;;13.40;73.80;;;;;;5059152;28;20039;-78
2023/11/10 12:10:38;;;;;;;0.65;0.45;;;13.50;73.90;;;;;;5058208;28;20044;-77
2023/11/10 12:13:07;;;;;;;0.88;0.40;;;13.50;73.80;;;;;;5056013;28;20298;-77
2023/11/10 12:15:34;;;;;;;1.88;0.38;;;13.60;73.90;;;;;;5058358;28;20039;-78
2023/11/10 12:18:01;;;;;;;0.45;0.22;;;13.70;74.00;;;;;;5059423;28;20028;-78
2023/11/10 12:20:31;;;;;;;1.27;0.40;;;13.70;73.70;;;;;;5056832;28;20072;-78
2023/11/10 12:22:57;;;;;;;0.45;0.40;;;13.80;73.80;;;;;;5061344;28;20525;-78
2023/11/10 12:25:27;;;;;;;0.43;0.40;;;13.80;73.60;;;;;;5059428;28;20047;-77
2023/11/10 12:27:54;;;;;;;1.05;0.32;;;13.90;73.60;;;;;;5060817;28;20024;-78
2023/11/10 12:30:21;;;;;;;0.82;0.38;;;14.00;73.60;;;;;;5050799;28;20066;-78
2023/11/10 12:32:48;;;;;;;0.50;0.40;;;14.10;73.40;;;;;;5058779;28;20032;-78
2023/11/10 12:35:15;;;;;;;0.57;0.30;;;14.20;73.30;;;;;;5057470;28;20510;-78
2023/11/10 12:37:41;;;;;;;0.43;0.30;;;14.30;73.10;;;;;;5061619;28;20036;-77
2023/11/10 12:40:12;;;;;;;0.20;0.20;;;14.40;73.00;;;;;;5058784;28;20061;-78
2023/11/10 12:42:39;;;;;;;0.45;0.30;;;14.50;72.80;;;;;;5050541;28;20265;-78
2023/11/10 12:45:12;;;;;;;0.43;0.20;;;14.60;72.70;;;;;;5058657;28;20056;-77
2023/11/10 12:47:42;;;;;;;;;;;14.70;72.50;;;;;;5060543;28;20047;-77
2023/11/10 12:50:17;;;;;;;1.45;0.50;;;14.80;72.50;;;;;;5059636;28;19912;-77